createdAt,value
2018-05-26T00:00:20.765Z,11.27
2018-05-26T00:02:14.095Z,11.22
2018-05-26T00:03:13.646Z,10.85
2018-05-26T00:05:08.298Z,10.81
2018-05-26T00:06:08.261Z,10.78
2018-05-26T00:08:01.917Z,10.78
2018-05-26T00:09:02.303Z,10.79
2018-05-26T00:10:54.737Z,10.79
2018-05-26T00:11:54.393Z,10.91
2018-05-26T00:13:48.079Z,10.86
2018-05-26T00:14:47.551Z,10.81
2018-05-26T00:16:40.909Z,10.79
2018-05-26T00:17:40.568Z,10.70
2018-05-26T00:19:33.506Z,10.40
2018-05-26T00:20:33.469Z,10.44
2018-05-26T00:22:26.986Z,10.56
2018-05-26T00:23:26.505Z,10.61
2018-05-26T00:25:23.297Z,10.42
2018-05-26T00:26:23.150Z,10.52
2018-05-26T00:28:17.838Z,10.74
2018-05-26T00:29:17.304Z,10.70
2018-05-26T00:31:15.726Z,10.61
2018-05-26T00:32:15.436Z,10.55
2018-05-26T00:34:08.769Z,10.60
2018-05-26T00:35:08.346Z,10.53
2018-05-26T00:37:01.876Z,10.36
2018-05-26T00:38:01.360Z,10.29
2018-05-26T00:39:54.910Z,10.25
2018-05-26T00:40:54.746Z,10.36
2018-05-26T00:42:48.622Z,10.32
2018-05-26T00:43:48.485Z,10.36
2018-05-26T00:45:43.155Z,10.60
2018-05-26T00:46:42.791Z,10.76
2018-05-26T00:48:36.251Z,10.66
2018-05-26T00:49:36.191Z,10.52
2018-05-26T00:51:29.188Z,10.44
2018-05-26T00:52:29.108Z,10.33
2018-05-26T00:54:22.147Z,10.22
2018-05-26T00:55:22.115Z,10.25
2018-05-26T00:57:17.135Z,10.34
2018-05-26T00:58:16.991Z,10.42
2018-05-26T01:00:09.865Z,10.25
2018-05-26T01:01:09.754Z,10.18
2018-05-26T01:03:02.840Z,10.52
2018-05-26T01:04:02.794Z,10.56
2018-05-26T01:05:56.181Z,10.34
2018-05-26T01:08:49.322Z,10.14
2018-05-26T01:09:48.853Z,10.11
2018-05-26T01:11:41.925Z,9.97
2018-05-26T01:12:41.887Z,10.23
2018-05-26T01:14:34.944Z,10.29
2018-05-26T01:15:34.943Z,10.17
2018-05-26T01:17:28.391Z,10.22
2018-05-26T01:18:27.831Z,10.22
2018-05-26T01:20:20.860Z,10.33
2018-05-26T01:21:20.937Z,10.29
2018-05-26T01:23:14.090Z,10.51
2018-05-26T01:24:13.999Z,10.73
2018-05-26T01:26:07.359Z,10.78
2018-05-26T01:27:07.290Z,10.61
2018-05-26T01:29:00.394Z,10.15
2018-05-26T01:30:00.376Z,10.27
2018-05-26T01:31:53.389Z,10.48
2018-05-26T01:32:53.702Z,10.44
2018-05-26T01:34:46.375Z,10.07
2018-05-26T01:35:46.325Z,10.18
2018-05-26T01:37:39.794Z,10.36
2018-05-26T01:38:39.769Z,10.48
2018-05-26T01:40:33.299Z,10.42
2018-05-26T01:41:33.241Z,10.36
2018-05-26T01:43:26.366Z,10.45
2018-05-26T01:44:26.267Z,10.36
2018-05-26T01:46:19.423Z,10.08
2018-05-26T01:47:19.323Z,10.33
2018-05-26T01:49:14.240Z,10.66
2018-05-26T01:50:13.850Z,10.60
2018-05-26T01:51:13.825Z,10.41
2018-05-26T01:52:13.864Z,10.25
2018-05-26T01:53:14.047Z,10.26
2018-05-26T01:54:13.707Z,10.14
2018-05-26T01:55:13.663Z,10.17
2018-05-26T01:56:13.606Z,9.97
2018-05-26T01:57:13.565Z,9.94
2018-05-26T01:58:13.518Z,9.94
2018-05-26T01:59:13.470Z,10.17
2018-05-26T02:00:13.443Z,10.17
2018-05-26T02:01:13.432Z,10.07
2018-05-26T02:02:13.380Z,9.99
2018-05-26T02:03:13.360Z,10.01
2018-05-26T02:04:13.294Z,9.97
2018-05-26T02:05:13.255Z,9.91
2018-05-26T02:06:13.231Z,9.91
2018-05-26T02:07:13.198Z,9.86
2018-05-26T02:08:13.167Z,9.69
2018-05-26T02:09:13.143Z,9.89
2018-05-26T02:10:13.091Z,9.94
2018-05-26T02:11:13.038Z,9.90
2018-05-26T02:12:12.988Z,9.78
2018-05-26T02:13:12.957Z,9.78
2018-05-26T02:14:12.919Z,9.68
2018-05-26T02:15:12.907Z,9.64
2018-05-26T02:16:12.855Z,9.60
2018-05-26T02:17:12.809Z,9.69
2018-05-26T02:18:12.768Z,9.57
2018-05-26T02:19:12.717Z,9.65
2018-05-26T02:20:12.729Z,9.61
2018-05-26T02:21:12.652Z,9.81
2018-05-26T02:22:12.617Z,9.83
2018-05-26T02:23:12.592Z,9.86
2018-05-26T02:24:12.542Z,10.08
2018-05-26T02:25:12.505Z,10.18
2018-05-26T02:26:12.464Z,10.33
2018-05-26T02:27:12.424Z,10.14
2018-05-26T02:28:12.463Z,9.96
2018-05-26T02:29:12.368Z,9.91
2018-05-26T02:30:12.338Z,9.76
2018-05-26T02:31:12.278Z,9.68
2018-05-26T02:32:12.232Z,9.68
2018-05-26T02:33:12.204Z,9.65
2018-05-26T02:34:12.172Z,9.71
2018-05-26T02:35:12.115Z,9.66
2018-05-26T02:36:12.079Z,9.93
2018-05-26T02:37:12.065Z,10.04
2018-05-26T02:38:12.009Z,9.93
2018-05-26T02:39:11.978Z,9.83
2018-05-26T02:40:11.933Z,9.72
2018-05-26T02:41:11.890Z,9.68
2018-05-26T02:42:11.871Z,9.68
2018-05-26T02:43:11.905Z,9.57
2018-05-26T02:44:11.782Z,9.60
2018-05-26T02:45:12.667Z,9.66
2018-05-26T02:46:11.740Z,9.83
2018-05-26T02:47:11.671Z,9.83
2018-05-26T02:48:11.683Z,9.68
2018-05-26T02:49:11.606Z,9.58
2018-05-26T02:50:11.604Z,9.57
2018-05-26T02:51:11.555Z,9.57
2018-05-26T02:52:11.542Z,9.56
2018-05-26T02:53:11.469Z,9.53
2018-05-26T02:54:11.410Z,9.39
2018-05-26T02:55:11.380Z,9.46
2018-05-26T02:56:11.338Z,9.51
2018-05-26T02:57:11.466Z,9.61
2018-05-26T02:58:11.277Z,9.54
2018-05-26T02:59:11.231Z,9.57
2018-05-26T03:00:11.203Z,9.51
2018-05-26T03:01:11.153Z,9.47
2018-05-26T03:02:11.128Z,9.46
2018-05-26T03:03:11.078Z,9.64
2018-05-26T03:04:11.068Z,9.50
2018-05-26T03:05:11.000Z,9.53
2018-05-26T03:06:10.991Z,9.47
2018-05-26T03:07:10.938Z,9.43
2018-05-26T03:08:10.913Z,9.39
2018-05-26T03:09:10.860Z,9.54
2018-05-26T03:10:10.832Z,9.47
2018-05-26T03:11:10.767Z,9.51
2018-05-26T03:12:10.734Z,9.48
2018-05-26T03:13:10.724Z,9.35
2018-05-26T03:14:10.674Z,9.42
2018-05-26T03:15:10.656Z,9.32
2018-05-26T03:16:10.604Z,9.31
2018-05-26T03:17:10.557Z,9.38
2018-05-26T03:18:10.524Z,9.38
2018-05-26T03:19:10.488Z,9.28
2018-05-26T03:20:10.436Z,9.26
2018-05-26T03:21:10.393Z,9.33
2018-05-26T03:22:10.367Z,9.24
2018-05-26T03:23:10.333Z,9.15
2018-05-26T03:24:10.309Z,9.21
2018-05-26T03:25:10.249Z,9.26
2018-05-26T03:26:10.226Z,9.51
2018-05-26T03:27:10.169Z,9.68
2018-05-26T03:28:10.143Z,9.71
2018-05-26T03:29:10.090Z,9.66
2018-05-26T03:30:10.093Z,9.60
2018-05-26T03:31:10.051Z,9.53
2018-05-26T03:32:09.975Z,9.51
2018-05-26T03:33:09.946Z,9.47
2018-05-26T03:34:09.912Z,9.58
2018-05-26T03:35:09.858Z,9.60
2018-05-26T03:36:09.827Z,9.57
2018-05-26T03:37:09.807Z,9.66
2018-05-26T03:38:09.752Z,9.69
2018-05-26T03:39:09.732Z,9.61
2018-05-26T03:40:09.688Z,9.61
2018-05-26T03:41:09.668Z,9.64
2018-05-26T03:42:09.619Z,9.50
2018-05-26T03:43:09.567Z,9.46
2018-05-26T03:44:09.555Z,9.46
2018-05-26T03:45:09.496Z,9.42
2018-05-26T03:46:09.459Z,9.48
2018-05-26T03:47:09.418Z,9.36
2018-05-26T03:48:09.393Z,9.48
2018-05-26T03:49:09.336Z,9.39
2018-05-26T03:50:09.341Z,9.39
2018-05-26T03:51:09.280Z,9.35
2018-05-26T03:52:10.164Z,9.42
2018-05-26T03:53:09.225Z,9.48
2018-05-26T03:54:09.165Z,9.71
2018-05-26T03:55:09.163Z,9.90
2018-05-26T03:56:09.087Z,9.90
2018-05-26T03:57:09.053Z,9.99
2018-05-26T03:58:08.994Z,9.90
2018-05-26T03:59:08.965Z,9.90
2018-05-26T04:00:08.938Z,9.93
2018-05-26T04:01:08.917Z,9.94
2018-05-26T04:02:08.907Z,9.96
2018-05-26T04:03:08.839Z,9.96
2018-05-26T04:04:08.805Z,9.99
2018-05-26T04:05:08.777Z,9.91
2018-05-26T04:06:08.744Z,9.93
2018-05-26T04:07:08.700Z,9.90
2018-05-26T04:08:08.656Z,9.91
2018-05-26T04:09:08.603Z,10.12
2018-05-26T04:10:08.588Z,10.14
2018-05-26T04:11:08.562Z,10.22
2018-05-26T04:12:08.495Z,10.34
2018-05-26T04:13:08.470Z,10.45
2018-05-26T04:14:08.409Z,10.48
2018-05-26T04:15:08.371Z,10.56
2018-05-26T04:16:08.381Z,10.61
2018-05-26T04:17:08.299Z,10.68
2018-05-26T04:18:08.260Z,10.74
2018-05-26T04:19:08.224Z,10.76
2018-05-26T04:20:08.218Z,10.94
2018-05-26T04:21:08.140Z,10.92
2018-05-26T04:22:08.110Z,11.10
2018-05-26T04:23:08.066Z,11.10
2018-05-26T04:24:08.050Z,11.21
2018-05-26T04:25:08.014Z,11.28
2018-05-26T04:26:07.970Z,11.42
2018-05-26T04:27:07.943Z,11.51
2018-05-26T04:28:08.683Z,11.72
2018-05-26T04:29:07.845Z,11.85
2018-05-26T04:30:07.810Z,12.05
2018-05-26T04:31:07.772Z,11.94
2018-05-26T04:32:07.735Z,11.88
2018-05-26T04:33:07.702Z,11.94
2018-05-26T04:34:07.679Z,11.99
2018-05-26T04:35:07.702Z,11.90
2018-05-26T04:36:07.652Z,11.94
2018-05-26T04:37:07.616Z,12.05
2018-05-26T04:38:07.517Z,11.94
2018-05-26T04:39:07.492Z,12.14
2018-05-26T04:40:07.468Z,12.23
2018-05-26T04:41:09.259Z,12.41
2018-05-26T04:42:07.428Z,12.64
2018-05-26T04:43:07.347Z,12.72
2018-05-26T04:44:07.307Z,12.93
2018-05-26T04:45:07.274Z,13.26
2018-05-26T04:46:07.248Z,13.57
2018-05-26T04:47:07.209Z,13.60
2018-05-26T04:48:07.199Z,13.82
2018-05-26T04:49:07.169Z,13.89
2018-05-26T04:50:07.099Z,13.87
2018-05-26T04:51:07.093Z,14.20
2018-05-26T04:52:07.028Z,14.37
2018-05-26T04:53:07.003Z,14.98
2018-05-26T04:54:07.000Z,15.38
2018-05-26T04:55:06.910Z,15.65
2018-05-26T04:56:06.908Z,16.09
2018-05-26T04:57:06.852Z,16.41
2018-05-26T04:58:06.825Z,16.50
2018-05-26T04:59:06.832Z,16.81
2018-05-26T05:00:06.762Z,16.97
2018-05-26T05:01:06.720Z,17.21
2018-05-26T05:02:06.681Z,17.38
2018-05-26T05:03:06.655Z,17.06
2018-05-26T05:04:06.622Z,16.15
2018-05-26T05:05:06.595Z,15.82
2018-05-26T05:06:06.579Z,16.25
2018-05-26T05:07:06.515Z,16.76
2018-05-26T05:08:06.500Z,17.11
2018-05-26T05:09:06.476Z,17.26
2018-05-26T05:10:06.424Z,17.43
2018-05-26T05:11:06.416Z,17.89
2018-05-26T05:12:06.399Z,18.02
2018-05-26T05:13:06.318Z,18.30
2018-05-26T05:14:06.294Z,18.62
2018-05-26T05:15:06.311Z,18.95
2018-05-26T05:16:06.235Z,19.10
2018-05-26T05:17:06.226Z,19.11
2018-05-26T05:18:06.176Z,19.23
2018-05-26T05:19:06.156Z,19.13
2018-05-26T05:20:06.135Z,18.90
2018-05-26T05:21:06.093Z,18.94
2018-05-26T05:22:06.076Z,18.48
2018-05-26T05:23:06.025Z,18.29
2018-05-26T05:24:06.013Z,18.05
2018-05-26T05:25:05.985Z,17.93
2018-05-26T05:26:06.052Z,17.37
2018-05-26T05:27:05.902Z,17.07
2018-05-26T05:28:05.881Z,16.11
2018-05-26T05:29:05.870Z,15.41
2018-05-26T05:30:05.830Z,15.06
2018-05-26T05:31:05.811Z,15.34
2018-05-26T05:32:05.768Z,15.38
2018-05-26T05:33:05.755Z,15.32
2018-05-26T05:34:05.709Z,15.39
2018-05-26T05:35:05.684Z,15.41
2018-05-26T05:36:05.659Z,15.27
2018-05-26T05:37:05.610Z,15.35
2018-05-26T05:38:05.594Z,15.68
2018-05-26T05:39:05.597Z,15.80
2018-05-26T05:40:05.545Z,15.97
2018-05-26T05:41:05.497Z,16.12
2018-05-26T05:42:05.508Z,16.21
2018-05-26T05:43:06.205Z,16.21
2018-05-26T05:44:05.429Z,16.33
2018-05-26T05:45:05.398Z,16.45
2018-05-26T05:46:05.346Z,16.63
2018-05-26T05:47:05.340Z,16.64
2018-05-26T05:48:05.328Z,16.60
2018-05-26T05:49:05.302Z,16.27
2018-05-26T05:50:05.249Z,16.07
2018-05-26T05:51:05.213Z,15.96
2018-05-26T05:52:05.217Z,16.17
2018-05-26T05:53:05.207Z,16.25
2018-05-26T05:54:05.109Z,16.34
2018-05-26T05:55:05.081Z,16.11
2018-05-26T05:56:05.041Z,16.12
2018-05-26T05:57:05.025Z,16.02
2018-05-26T05:58:04.997Z,15.92
2018-05-26T05:59:05.196Z,15.93
2018-05-26T06:00:04.988Z,15.89
2018-05-26T06:01:04.904Z,15.89
2018-05-26T06:02:04.869Z,16.00
2018-05-26T06:03:04.848Z,16.33
2018-05-26T06:04:04.817Z,16.64
2018-05-26T06:05:04.776Z,16.86
2018-05-26T06:06:04.757Z,16.98
2018-05-26T06:07:04.712Z,16.97
2018-05-26T06:08:04.710Z,16.79
2018-05-26T06:09:04.692Z,16.83
2018-05-26T06:10:04.648Z,16.79
2018-05-26T06:11:04.595Z,16.46
2018-05-26T06:12:04.576Z,16.56
2018-05-26T06:13:04.589Z,16.46
2018-05-26T06:14:04.509Z,16.66
2018-05-26T06:15:04.513Z,16.86
2018-05-26T06:16:04.473Z,16.98
2018-05-26T06:17:04.573Z,17.01
2018-05-26T06:18:04.392Z,17.00
2018-05-26T06:19:04.355Z,17.07
2018-05-26T06:20:04.365Z,17.46
2018-05-26T06:21:04.313Z,17.81
2018-05-26T06:22:04.306Z,18.10
2018-05-26T06:23:04.263Z,17.96
2018-05-26T06:24:04.304Z,17.75
2018-05-26T06:25:04.210Z,17.71
2018-05-26T06:26:04.153Z,17.64
2018-05-26T06:27:04.111Z,17.78
2018-05-26T06:28:04.088Z,17.93
2018-05-26T06:29:04.066Z,17.90
2018-05-26T06:30:04.019Z,17.62
2018-05-26T06:31:03.998Z,17.48
2018-05-26T06:32:03.957Z,17.52
2018-05-26T06:33:03.951Z,17.58
2018-05-26T06:34:03.937Z,17.49
2018-05-26T06:35:03.892Z,17.54
2018-05-26T06:36:03.845Z,17.51
2018-05-26T06:37:03.816Z,17.52
2018-05-26T06:38:03.773Z,17.59
2018-05-26T06:39:03.753Z,17.79
2018-05-26T06:40:03.734Z,17.77
2018-05-26T06:41:03.737Z,17.84
2018-05-26T06:42:03.673Z,17.89
2018-05-26T06:43:03.625Z,17.86
2018-05-26T06:44:03.603Z,18.05
2018-05-26T06:45:03.583Z,18.12
2018-05-26T06:46:03.546Z,18.32
2018-05-26T06:47:03.519Z,18.51
2018-05-26T06:48:03.532Z,18.62
2018-05-26T06:49:03.455Z,18.57
2018-05-26T06:50:03.422Z,18.62
2018-05-26T06:51:03.442Z,18.73
2018-05-26T06:52:03.396Z,19.18
2018-05-26T06:53:03.359Z,19.77
2018-05-26T06:54:03.327Z,20.67
2018-05-26T06:55:03.303Z,21.13
2018-05-26T06:56:03.264Z,21.80
2018-05-26T06:57:03.232Z,22.62
2018-05-26T06:58:03.176Z,23.19
2018-05-26T06:59:03.183Z,23.90
2018-05-26T07:00:03.141Z,24.57
2018-05-26T07:01:03.104Z,25.10
2018-05-26T07:02:03.080Z,25.73
2018-05-26T07:03:03.063Z,25.90
2018-05-26T07:04:03.031Z,25.87
2018-05-26T07:05:03.003Z,26.12
2018-05-26T07:06:02.980Z,25.90
2018-05-26T07:07:02.950Z,25.76
2018-05-26T07:08:03.053Z,25.65
2018-05-26T07:09:02.899Z,25.67
2018-05-26T07:10:02.911Z,26.25
2018-05-26T07:11:02.936Z,26.10
2018-05-26T07:12:02.845Z,26.12
2018-05-26T07:13:02.794Z,26.50
2018-05-26T07:14:02.812Z,26.35
2018-05-26T07:15:02.776Z,26.99
2018-05-26T07:16:02.717Z,26.62
2018-05-26T07:17:02.717Z,26.58
2018-05-26T07:18:02.705Z,26.80
2018-05-26T07:19:02.691Z,27.59
2018-05-26T07:20:02.630Z,26.48
2018-05-26T07:21:02.609Z,25.73
2018-05-26T07:22:02.586Z,25.02
2018-05-26T07:23:02.564Z,26.23
2018-05-26T07:24:02.568Z,27.29
2018-05-26T07:25:02.518Z,27.36
2018-05-26T07:26:02.521Z,27.70
2018-05-26T07:27:02.537Z,27.70
2018-05-26T07:28:02.503Z,28.12
2018-05-26T07:29:02.442Z,28.11
2018-05-26T07:30:02.439Z,26.57
2018-05-26T07:31:02.433Z,26.48
2018-05-26T07:32:02.385Z,26.13
2018-05-26T07:33:02.362Z,26.32
2018-05-26T07:34:02.333Z,26.40
2018-05-26T07:35:02.315Z,26.25
2018-05-26T07:36:02.304Z,25.54
2018-05-26T07:37:02.279Z,26.18
2018-05-26T07:38:02.280Z,26.80
2018-05-26T07:39:02.246Z,26.84
2018-05-26T07:40:02.255Z,27.96
2018-05-26T07:41:02.207Z,29.08
2018-05-26T07:42:02.181Z,29.12
2018-05-26T07:43:02.165Z,29.16
2018-05-26T07:44:02.145Z,29.26
2018-05-26T07:45:02.153Z,28.61
2018-05-26T07:46:02.117Z,28.83
2018-05-26T07:47:02.096Z,27.99
2018-05-26T07:48:02.076Z,27.79
2018-05-26T07:49:02.064Z,28.64
2018-05-26T07:50:02.041Z,28.62
2018-05-26T07:51:02.036Z,28.09
2018-05-26T07:52:02.025Z,26.44
2018-05-26T07:53:01.994Z,26.75
2018-05-26T07:54:01.983Z,26.51
2018-05-26T07:55:01.948Z,27.19
2018-05-26T07:56:01.965Z,26.54
2018-05-26T07:57:01.913Z,27.54
2018-05-26T07:58:01.908Z,28.24
2018-05-26T07:59:01.885Z,27.75
2018-05-26T08:00:01.881Z,26.73
2018-05-26T08:01:01.872Z,26.95
2018-05-26T08:02:01.828Z,28.11
2018-05-26T08:03:01.801Z,28.02
2018-05-26T08:04:01.787Z,27.66
2018-05-26T08:05:01.778Z,27.60
2018-05-26T08:06:01.768Z,28.77
2018-05-26T08:07:01.764Z,29.11
2018-05-26T08:08:01.717Z,29.48
2018-05-26T08:09:01.724Z,30.32
2018-05-26T08:10:01.689Z,30.75
2018-05-26T08:11:01.709Z,30.26
2018-05-26T08:12:01.660Z,29.98
2018-05-26T08:13:01.634Z,30.02
2018-05-26T08:14:01.623Z,30.46
2018-05-26T08:15:01.599Z,29.83
2018-05-26T08:16:01.589Z,29.02
2018-05-26T08:17:01.600Z,29.06
2018-05-26T08:18:01.553Z,29.28
2018-05-26T08:19:01.570Z,29.60
2018-05-26T08:20:01.520Z,29.57
2018-05-26T08:21:01.515Z,29.51
2018-05-26T08:22:01.499Z,29.02
2018-05-26T08:23:01.473Z,28.64
2018-05-26T08:24:01.501Z,28.89
2018-05-26T08:25:01.439Z,28.18
2018-05-26T08:26:01.421Z,26.72
2018-05-26T08:27:01.407Z,26.80
2018-05-26T08:28:01.392Z,27.39
2018-05-26T08:29:01.371Z,26.95
2018-05-26T08:30:01.363Z,27.25
2018-05-26T08:31:01.353Z,28.02
2018-05-26T08:32:01.320Z,28.51
2018-05-26T08:33:01.324Z,29.28
2018-05-26T08:34:01.291Z,30.24
2018-05-26T08:35:01.300Z,30.86
2018-05-26T08:36:01.251Z,31.14
2018-05-26T08:37:01.237Z,29.55
2018-05-26T08:38:01.210Z,29.24
2018-05-26T08:39:01.201Z,28.40
2018-05-26T08:40:01.184Z,27.55
2018-05-26T08:41:01.168Z,26.97
2018-05-26T08:42:01.151Z,26.29
2018-05-26T08:43:01.195Z,26.10
2018-05-26T08:44:01.121Z,26.77
2018-05-26T08:45:01.109Z,26.48
2018-05-26T08:46:01.073Z,26.18
2018-05-26T08:47:01.069Z,25.99
2018-05-26T08:48:01.098Z,25.54
2018-05-26T08:49:01.021Z,26.29
2018-05-26T08:50:01.023Z,28.15
2018-05-26T08:51:00.994Z,29.19
2018-05-26T08:52:00.967Z,28.27
2018-05-26T08:53:00.955Z,28.17
2018-05-26T08:54:00.933Z,27.90
2018-05-26T08:55:00.915Z,27.39
2018-05-26T08:56:00.914Z,28.73
2018-05-26T08:57:00.873Z,29.85
2018-05-26T08:58:00.859Z,30.88
2018-05-26T08:59:00.836Z,31.34
2018-05-26T09:00:00.814Z,32.14
2018-05-26T09:01:00.804Z,30.86
2018-05-26T09:02:00.820Z,30.84
2018-05-26T09:03:00.780Z,31.32
2018-05-26T09:04:00.760Z,31.89
2018-05-26T09:05:00.760Z,31.53
2018-05-26T09:06:00.715Z,30.82
2018-05-26T09:07:00.695Z,30.83
2018-05-26T09:08:00.689Z,30.58
2018-05-26T09:09:00.666Z,31.39
2018-05-26T09:10:00.652Z,30.37
2018-05-26T09:11:00.644Z,29.51
2018-05-26T09:12:00.589Z,28.74
2018-05-26T09:13:00.582Z,30.04
2018-05-26T09:14:00.589Z,31.01
2018-05-26T09:15:00.570Z,31.38
2018-05-26T09:16:00.540Z,31.12
2018-05-26T09:17:00.499Z,30.49
2018-05-26T09:18:00.498Z,30.88
2018-05-26T09:19:00.553Z,31.36
2018-05-26T09:20:00.447Z,29.85
2018-05-26T09:21:00.463Z,30.53
2018-05-26T09:22:00.425Z,31.38
2018-05-26T09:23:00.405Z,31.47
2018-05-26T09:24:00.387Z,30.42
2018-05-26T09:25:00.395Z,30.35
2018-05-26T09:26:00.359Z,30.02
2018-05-26T09:27:00.330Z,29.83
2018-05-26T09:28:00.327Z,29.87
2018-05-26T09:29:00.331Z,29.73
2018-05-26T09:30:00.302Z,28.04
2018-05-26T09:31:00.316Z,26.77
2018-05-26T09:32:00.240Z,26.21
2018-05-26T09:33:00.227Z,25.76
2018-05-26T09:34:00.212Z,26.21
2018-05-26T09:35:00.214Z,28.04
2018-05-26T09:36:00.182Z,29.30
2018-05-26T09:37:00.154Z,30.02
2018-05-26T09:38:00.144Z,31.14
2018-05-26T09:39:00.137Z,31.43
2018-05-26T09:40:00.103Z,31.44
2018-05-26T09:41:00.126Z,30.53
2018-05-26T09:42:00.105Z,29.26
2018-05-26T09:43:00.038Z,29.87
2018-05-26T09:44:00.038Z,30.10
2018-05-26T09:45:00.036Z,29.83
2018-05-26T09:46:00.012Z,28.77
2018-05-26T09:46:59.976Z,28.40
2018-05-26T09:47:59.954Z,28.29
2018-05-26T09:48:59.957Z,28.02
2018-05-26T09:49:59.946Z,27.74
2018-05-26T09:50:59.908Z,28.68
2018-05-26T09:51:59.921Z,29.00
2018-05-26T09:52:59.884Z,29.98
2018-05-26T09:53:59.855Z,30.89
2018-05-26T09:54:59.826Z,31.50
2018-05-26T09:55:59.819Z,31.66
2018-05-26T09:56:59.788Z,30.89
2018-05-26T09:57:59.773Z,30.75
2018-05-26T09:58:59.754Z,31.73
2018-05-26T09:59:59.751Z,31.39
2018-05-26T10:00:59.752Z,31.38
2018-05-26T10:01:59.738Z,29.89
2018-05-26T10:02:59.676Z,30.75
2018-05-26T10:03:59.650Z,30.86
2018-05-26T10:04:59.649Z,31.12
2018-05-26T10:05:59.639Z,30.64
2018-05-26T10:06:59.607Z,31.23
2018-05-26T10:07:59.592Z,30.27
2018-05-26T10:08:59.572Z,29.87
2018-05-26T10:09:59.543Z,30.13
2018-05-26T10:10:59.525Z,29.52
2018-05-26T10:11:59.523Z,30.07
2018-05-26T10:12:59.522Z,29.87
2018-05-26T10:13:59.505Z,29.23
2018-05-26T10:14:59.483Z,29.73
2018-05-26T10:15:59.444Z,30.69
2018-05-26T10:16:59.421Z,31.76
2018-05-26T10:17:59.409Z,31.09
2018-05-26T10:18:59.428Z,30.10
2018-05-26T10:19:59.444Z,29.78
2018-05-26T10:20:59.393Z,29.52
2018-05-26T10:21:59.370Z,29.95
2018-05-26T10:22:59.335Z,30.60
2018-05-26T10:23:59.304Z,31.50
2018-05-26T10:24:59.287Z,31.63
2018-05-26T10:25:59.277Z,31.95
2018-05-26T10:26:59.250Z,32.18
2018-05-26T10:27:59.264Z,32.96
2018-05-26T10:28:59.207Z,33.11
2018-05-26T10:29:59.249Z,32.99
2018-05-26T10:30:59.175Z,32.84
2018-05-26T10:31:59.164Z,32.55
2018-05-26T10:32:59.152Z,32.57
2018-05-26T10:33:59.139Z,32.59
2018-05-26T10:34:59.117Z,31.46
2018-05-26T10:35:59.102Z,31.16
2018-05-26T10:36:59.103Z,31.26
2018-05-26T10:37:59.074Z,31.80
2018-05-26T10:38:59.078Z,29.94
2018-05-26T10:39:59.141Z,30.64
2018-05-26T10:40:59.029Z,28.24
2018-05-26T10:41:58.989Z,27.97
2018-05-26T10:42:58.964Z,27.63
2018-05-26T10:43:58.952Z,27.79
2018-05-26T10:44:58.934Z,28.00
2018-05-26T10:45:58.918Z,27.77
2018-05-26T10:46:58.919Z,28.76
2018-05-26T10:47:58.889Z,29.80
2018-05-26T10:48:58.872Z,30.24
2018-05-26T10:49:58.876Z,29.61
2018-05-26T10:50:58.831Z,30.77
2018-05-26T10:51:58.819Z,31.39
2018-05-26T10:52:58.801Z,32.01
2018-05-26T10:53:58.776Z,30.84
2018-05-26T10:54:58.761Z,30.29
2018-05-26T10:55:58.779Z,29.63
2018-05-26T10:56:58.727Z,29.31
2018-05-26T10:57:58.705Z,29.05
2018-05-26T10:58:58.693Z,28.70
2018-05-26T10:59:58.689Z,27.99
2018-05-26T11:00:58.662Z,27.66
2018-05-26T11:01:58.730Z,27.60
2018-05-26T11:02:58.710Z,27.74
2018-05-26T11:03:58.603Z,28.58
2018-05-26T11:04:58.576Z,28.52
2018-05-26T11:05:58.559Z,29.06
2018-05-26T11:06:58.542Z,29.27
2018-05-26T11:07:58.564Z,29.82
2018-05-26T11:08:58.521Z,30.46
2018-05-26T11:09:58.479Z,31.02
2018-05-26T11:10:58.470Z,30.53
2018-05-26T11:11:58.477Z,29.46
2018-05-26T11:12:58.439Z,29.64
2018-05-26T11:13:58.402Z,28.96
2018-05-26T11:14:58.395Z,28.09
2018-05-26T11:15:58.384Z,26.60
2018-05-26T11:16:58.357Z,26.44
2018-05-26T11:17:58.499Z,26.50
2018-05-26T11:18:58.369Z,26.45
2018-05-26T11:19:58.307Z,25.90
2018-05-26T11:20:58.284Z,25.40
2018-05-26T11:21:58.331Z,25.43
2018-05-26T11:22:58.233Z,25.43
2018-05-26T11:23:58.253Z,25.61
2018-05-26T11:24:58.205Z,25.88
2018-05-26T11:25:58.260Z,25.98
2018-05-26T11:26:58.204Z,26.02
2018-05-26T11:27:58.156Z,26.06
2018-05-26T11:28:58.185Z,25.98
2018-05-26T11:29:58.316Z,26.10
2018-05-26T11:30:58.116Z,26.02
2018-05-26T11:31:58.184Z,25.90
2018-05-26T11:32:58.034Z,25.83
2018-05-26T11:33:58.008Z,25.75
2018-05-26T11:34:58.018Z,25.65
2018-05-26T11:35:58.232Z,25.43
2018-05-26T11:36:57.953Z,25.24
2018-05-26T11:37:57.930Z,25.18
2018-05-26T11:38:57.930Z,25.47
2018-05-26T11:39:57.885Z,25.51
2018-05-26T11:40:57.882Z,25.65
2018-05-26T11:41:57.905Z,25.90
2018-05-26T11:42:57.837Z,25.91
2018-05-26T11:43:57.802Z,25.90
2018-05-26T11:44:57.772Z,25.76
2018-05-26T11:45:57.753Z,25.69
2018-05-26T11:46:57.725Z,25.85
2018-05-26T11:47:57.710Z,26.01
2018-05-26T11:48:57.718Z,26.02
2018-05-26T11:49:57.657Z,26.17
2018-05-26T11:50:57.639Z,26.20
2018-05-26T11:51:57.656Z,26.29
2018-05-26T11:52:57.593Z,26.44
2018-05-26T11:53:57.577Z,27.09
2018-05-26T11:54:57.551Z,26.50
2018-05-26T11:55:57.550Z,26.37
2018-05-26T11:56:57.496Z,26.02
2018-05-26T11:57:57.508Z,25.62
2018-05-26T11:58:57.444Z,25.55
2018-05-26T11:59:57.424Z,25.45
2018-05-26T12:00:57.424Z,25.35
2018-05-26T12:01:57.441Z,25.43
2018-05-26T12:02:57.354Z,25.42
2018-05-26T12:03:57.359Z,25.40
2018-05-26T12:04:57.340Z,25.82
2018-05-26T12:05:57.285Z,25.87
2018-05-26T12:06:57.268Z,25.55
2018-05-26T12:07:57.255Z,25.51
2018-05-26T12:08:57.221Z,25.61
2018-05-26T12:09:57.210Z,25.64
2018-05-26T12:10:57.185Z,26.09
2018-05-26T12:11:57.147Z,27.12
2018-05-26T12:12:57.156Z,27.90
2018-05-26T12:13:57.125Z,27.70
2018-05-26T12:14:57.081Z,28.18
2018-05-26T12:15:57.086Z,28.33
2018-05-26T12:16:57.044Z,27.63
2018-05-26T12:17:57.015Z,27.12
2018-05-26T12:18:56.993Z,27.43
2018-05-26T12:19:56.959Z,28.29
2018-05-26T12:20:56.970Z,27.70
2018-05-26T12:21:56.969Z,27.72
2018-05-26T12:22:57.021Z,28.37
2018-05-26T12:23:56.874Z,28.74
2018-05-26T12:24:56.853Z,28.85
2018-05-26T12:25:56.829Z,29.28
2018-05-26T12:26:56.934Z,29.19
2018-05-26T12:27:56.788Z,29.08
2018-05-26T12:28:56.793Z,29.31
2018-05-26T12:29:56.763Z,29.41
2018-05-26T12:30:56.728Z,29.58
2018-05-26T12:31:56.907Z,29.80
2018-05-26T12:32:56.728Z,29.86
2018-05-26T12:33:56.681Z,29.95
2018-05-26T12:34:56.635Z,29.49
2018-05-26T12:35:56.617Z,29.00
2018-05-26T12:36:56.587Z,28.86
2018-05-26T12:37:56.579Z,29.21
2018-05-26T12:38:56.572Z,29.80
2018-05-26T12:39:56.527Z,30.26
2018-05-26T12:40:56.519Z,30.39
2018-05-26T12:41:56.493Z,30.10
2018-05-26T12:42:56.472Z,30.29
2018-05-26T12:43:56.496Z,30.67
2018-05-26T12:44:56.445Z,30.37
2018-05-26T12:45:56.422Z,30.72
2018-05-26T12:46:56.399Z,30.80
2018-05-26T12:47:56.370Z,30.46
2018-05-26T12:48:56.347Z,30.35
2018-05-26T12:49:56.332Z,29.65
2018-05-26T12:50:56.314Z,29.87
2018-05-26T12:51:56.300Z,30.35
2018-05-26T12:52:56.286Z,29.82
2018-05-26T12:53:56.267Z,30.01
2018-05-26T12:54:56.247Z,30.39
2018-05-26T12:55:56.231Z,29.86
2018-05-26T12:56:56.199Z,29.90
2018-05-26T12:57:56.192Z,30.08
2018-05-26T12:58:56.204Z,29.95
2018-05-26T12:59:56.159Z,29.97
2018-05-26T13:00:56.150Z,30.17
2018-05-26T13:01:56.106Z,30.26
2018-05-26T13:02:56.129Z,30.53
2018-05-26T13:03:56.077Z,30.64
2018-05-26T13:04:56.053Z,31.23
2018-05-26T13:05:56.030Z,31.32
2018-05-26T13:06:56.024Z,31.04
2018-05-26T13:07:56.002Z,31.25
2018-05-26T13:08:56.043Z,30.80
2018-05-26T13:09:55.973Z,30.24
2018-05-26T13:10:55.977Z,30.00
2018-05-26T13:11:55.926Z,30.31
2018-05-26T13:12:55.905Z,30.65
2018-05-26T13:13:55.883Z,30.17
2018-05-26T13:14:55.868Z,30.16
2018-05-26T13:15:55.910Z,30.38
2018-05-26T13:16:55.846Z,30.55
2018-05-26T13:17:55.848Z,29.98
2018-05-26T13:18:55.792Z,29.37
2018-05-26T13:19:55.808Z,28.95
2018-05-26T13:20:55.761Z,28.83
2018-05-26T13:21:55.760Z,29.39
2018-05-26T13:22:55.742Z,29.57
2018-05-26T13:23:55.723Z,29.87
2018-05-26T13:24:55.709Z,29.92
2018-05-26T13:25:55.718Z,30.17
2018-05-26T13:26:55.664Z,29.23
2018-05-26T13:27:55.651Z,29.27
2018-05-26T13:28:55.625Z,29.48
2018-05-26T13:29:55.614Z,29.49
2018-05-26T13:30:55.624Z,28.40